createdAt,value
2022-10-10T00:01:29.257Z,96349.38
2022-10-10T00:03:56.775Z,96354.03
2022-10-10T00:06:25.164Z,96350.31
2022-10-10T00:08:53.589Z,96344.63
2022-10-10T00:11:23.777Z,96348.53
2022-10-10T00:13:52.479Z,96340.16
2022-10-10T00:16:20.864Z,96335.22
2022-10-10T00:18:48.578Z,96333.25
2022-10-10T00:21:16.335Z,96342.59
2022-10-10T00:23:43.438Z,96331.78
2022-10-10T00:26:14.949Z,96336.44
2022-10-10T00:28:45.893Z,96339.63
2022-10-10T00:31:12.899Z,96342.03
2022-10-10T00:33:39.955Z,96336.16
2022-10-10T00:36:07.526Z,96330.28
2022-10-10T00:38:35.469Z,96332.72
2022-10-10T00:41:02.851Z,96340.34
2022-10-10T00:43:31.097Z,96335.41
2022-10-10T00:45:58.275Z,96329.72
2022-10-10T00:48:30.037Z,96334.38
2022-10-10T00:51:19.001Z,96334.88
2022-10-10T00:53:58.928Z,96337.56
2022-10-10T00:56:33.778Z,96334.88
2022-10-10T00:59:08.772Z,96337.28
2022-10-10T01:01:35.789Z,96330.84
2022-10-10T01:04:03.893Z,96329.19
2022-10-10T01:06:32.807Z,96328.88
2022-10-10T01:09:07.991Z,96322.72
2022-10-10T01:11:55.570Z,96318.06
2022-10-10T01:14:42.129Z,96323.22
2022-10-10T01:17:26.246Z,96320.53
2022-10-10T01:20:08.536Z,96320.22
2022-10-10T01:22:41.717Z,96324.13
2022-10-10T01:25:56.944Z,96317.97
2022-10-10T01:28:39.823Z,96323.22
2022-10-10T01:31:11.023Z,96324.13
2022-10-10T01:33:43.627Z,96319.69
2022-10-10T01:36:22.965Z,96318.47
2022-10-10T01:38:54.036Z,96311.38
2022-10-10T01:41:39.428Z,96304.69
2022-10-10T01:44:06.557Z,96305.22
2022-10-10T01:46:33.856Z,96309.41
2022-10-10T01:49:02.749Z,96302.53
2022-10-10T01:51:44.899Z,96302.53
2022-10-10T01:54:20.988Z,96304.47
2022-10-10T01:57:05.387Z,96303.19
2022-10-10T02:00:00.748Z,96302.25
2022-10-10T02:02:35.905Z,96297.78
2022-10-10T02:05:32.995Z,96295.06
2022-10-10T02:08:12.415Z,96289.97
2022-10-10T02:10:51.279Z,96292.75
2022-10-10T02:13:18.815Z,96302.53
2022-10-10T02:15:51.274Z,96299.06
2022-10-10T02:18:22.482Z,96305.50
2022-10-10T02:20:51.785Z,96301.59
2022-10-10T02:23:22.037Z,96298.91
2022-10-10T02:25:56.214Z,96298.91
2022-10-10T02:28:33.777Z,96292.84
2022-10-10T02:31:07.270Z,96288.19
2022-10-10T02:33:56.668Z,96291.88
2022-10-10T02:36:25.251Z,96293.69
2022-10-10T02:38:54.237Z,96294.41
2022-10-10T02:41:23.446Z,96293.94
2022-10-10T02:43:52.257Z,96302.03
2022-10-10T02:46:20.176Z,96298.41
2022-10-10T02:48:47.448Z,96303.53
2022-10-10T02:51:16.547Z,96301.84
2022-10-10T02:53:43.614Z,96293.00
2022-10-10T02:56:11.107Z,96294.03
2022-10-10T02:58:38.496Z,96300.47
2022-10-10T03:01:05.877Z,96300.72
2022-10-10T03:03:34.133Z,96300.47
2022-10-10T03:06:04.778Z,96295.06
2022-10-10T03:08:32.206Z,96291.88
2022-10-10T03:11:02.707Z,96291.13
2022-10-10T03:13:30.831Z,96290.41
2022-10-10T03:15:58.087Z,96291.88
2022-10-10T03:18:25.269Z,96295.31
2022-10-10T03:20:56.647Z,96291.88
2022-10-10T03:23:25.377Z,96286.19
2022-10-10T03:25:52.794Z,96281.53
2022-10-10T03:28:20.929Z,96292.59
2022-10-10T03:30:48.495Z,96288.69
2022-10-10T03:33:16.124Z,96292.59
2022-10-10T03:35:43.216Z,96295.31
2022-10-10T03:38:11.610Z,96297.84
2022-10-10T03:40:43.656Z,96294.84
2022-10-10T03:43:12.667Z,96296.06
2022-10-10T03:45:43.052Z,96293.34
2022-10-10T03:48:10.879Z,96295.81
2022-10-10T03:50:38.146Z,96297.00
2022-10-10T03:53:05.962Z,96292.59
2022-10-10T03:55:32.979Z,96307.63
2022-10-10T03:58:01.056Z,96301.94
2022-10-10T04:00:28.006Z,96302.41
2022-10-10T04:02:55.156Z,96298.97
2022-10-10T04:05:22.107Z,96304.84
2022-10-10T04:07:49.473Z,96304.53
2022-10-10T04:10:16.792Z,96306.53
2022-10-10T04:12:44.208Z,96296.91
2022-10-10T04:15:11.274Z,96300.84
2022-10-10T04:17:38.480Z,96301.28
2022-10-10T04:20:05.878Z,96292.44
2022-10-10T04:22:32.943Z,96301.78
2022-10-10T04:24:59.876Z,96305.94
2022-10-10T04:27:26.991Z,96306.25
2022-10-10T04:29:54.251Z,96297.28
2022-10-10T04:32:21.397Z,96304.19
2022-10-10T04:34:48.532Z,96296.53
2022-10-10T04:37:16.159Z,96296.53
2022-10-10T04:39:43.108Z,96293.84
2022-10-10T04:42:10.218Z,96293.38
2022-10-10T04:44:37.577Z,96292.44
2022-10-10T04:47:04.719Z,96296.38
2022-10-10T04:49:31.627Z,96303.81
2022-10-10T04:51:58.786Z,96307.53
2022-10-10T04:54:25.701Z,96316.31
2022-10-10T04:56:52.986Z,96314.81
2022-10-10T04:59:20.217Z,96310.69
2022-10-10T05:01:47.315Z,96307.53
2022-10-10T05:04:14.759Z,96302.88
2022-10-10T05:06:41.914Z,96306.63
2022-10-10T05:09:08.888Z,96304.16
2022-10-10T05:11:36.210Z,96306.66
2022-10-10T05:14:04.519Z,96302.50
2022-10-10T05:16:31.704Z,96308.66
2022-10-10T05:18:58.671Z,96306.88
2022-10-10T05:21:25.831Z,96305.66
2022-10-10T05:23:52.792Z,96307.91
2022-10-10T05:26:21.018Z,96303.72
2022-10-10T05:28:49.004Z,96299.97
2022-10-10T05:31:16.095Z,96308.38
2022-10-10T05:33:43.061Z,96302.22
2022-10-10T05:36:13.926Z,96300.72
2022-10-10T05:38:42.593Z,96301.56
2022-10-10T05:41:10.143Z,96308.44
2022-10-10T05:43:37.511Z,96302.28
2022-10-10T05:46:05.255Z,96303.03
2022-10-10T05:48:32.486Z,96304.53
2022-10-10T05:51:00.828Z,96308.00
2022-10-10T05:53:30.320Z,96298.94
2022-10-10T05:55:57.827Z,96300.22
2022-10-10T05:58:26.687Z,96312.06
2022-10-10T06:00:53.984Z,96307.94
2022-10-10T06:03:23.589Z,96310.91
2022-10-10T06:05:51.919Z,96307.28
2022-10-10T06:08:19.094Z,96316.41
2022-10-10T06:10:46.593Z,96314.28
2022-10-10T06:13:20.299Z,96319.72
2022-10-10T06:15:53.225Z,96321.78
2022-10-10T06:18:20.399Z,96334.81
2022-10-10T06:20:47.551Z,96330.69
2022-10-10T06:23:14.812Z,96329.03
2022-10-10T06:25:42.301Z,96332.06
2022-10-10T06:28:11.376Z,96343.16
2022-10-10T06:30:48.687Z,96337.75
2022-10-10T06:33:18.752Z,96343.16
2022-10-10T06:35:47.995Z,96341.03
2022-10-10T06:38:17.257Z,96346.72
2022-10-10T06:40:46.321Z,96341.84
2022-10-10T06:43:16.312Z,96348.56
2022-10-10T06:45:50.129Z,96355.00
2022-10-10T06:48:17.228Z,96354.78
2022-10-10T06:50:44.206Z,96352.91
2022-10-10T06:53:11.255Z,96349.97
2022-10-10T06:55:38.208Z,96361.34
2022-10-10T06:58:05.865Z,96364.41
2022-10-10T07:00:32.863Z,96366.72
2022-10-10T07:02:59.980Z,96373.13
2022-10-10T07:05:26.946Z,96373.19
2022-10-10T07:07:54.056Z,96377.09
2022-10-10T07:10:21.113Z,96370.00
2022-10-10T07:12:48.506Z,96379.88
2022-10-10T07:15:15.753Z,96369.34
2022-10-10T07:17:44.201Z,96375.28
2022-10-10T07:20:11.590Z,96378.25
2022-10-10T07:22:38.697Z,96383.00
2022-10-10T07:25:06.038Z,96383.53
2022-10-10T07:27:33.035Z,96381.34
2022-10-10T07:29:59.983Z,96384.88
2022-10-10T07:32:27.015Z,96382.69
2022-10-10T07:34:54.562Z,96381.31
2022-10-10T07:37:21.815Z,96387.31
2022-10-10T07:39:49.006Z,96392.09
2022-10-10T07:42:16.155Z,96396.41
2022-10-10T07:44:43.652Z,96399.97
2022-10-10T07:47:11.029Z,96401.50
2022-10-10T07:49:38.739Z,96396.41
2022-10-10T07:52:05.911Z,96398.00
2022-10-10T07:54:33.486Z,96397.59
2022-10-10T07:57:00.877Z,96406.56
2022-10-10T07:59:28.466Z,96407.34
2022-10-10T08:01:55.667Z,96412.06
2022-10-10T08:04:23.850Z,96411.34
2022-10-10T08:06:51.275Z,96409.44
2022-10-10T08:09:18.559Z,96408.00
2022-10-10T08:11:45.692Z,96412.00
2022-10-10T08:14:13.264Z,96407.34
2022-10-10T08:16:40.484Z,96405.44
2022-10-10T08:19:07.897Z,96411.63
2022-10-10T08:21:36.358Z,96412.69
2022-10-10T08:24:06.584Z,96409.72
2022-10-10T08:26:33.707Z,96412.44
2022-10-10T08:29:01.427Z,96418.69
2022-10-10T08:31:29.175Z,96417.22
2022-10-10T08:33:56.954Z,96419.94
2022-10-10T08:36:24.964Z,96414.53
2022-10-10T08:39:00.161Z,96417.00
2022-10-10T08:41:38.525Z,96411.31
2022-10-10T08:44:21.513Z,96409.34
2022-10-10T08:47:02.275Z,96407.38
2022-10-10T08:49:55.842Z,96400.94
2022-10-10T08:52:25.767Z,96405.13
2022-10-10T08:54:58.287Z,96401.94
2022-10-10T08:57:55.684Z,96408.34
2022-10-10T09:00:25.382Z,96404.16
2022-10-10T09:02:59.290Z,96405.41
2022-10-10T09:06:01.686Z,96407.13
2022-10-10T09:08:58.756Z,96404.16
2022-10-10T09:11:40.790Z,96407.09
2022-10-10T09:14:22.838Z,96412.31
2022-10-10T09:17:05.306Z,96408.13
2022-10-10T09:19:53.497Z,96418.25
2022-10-10T09:22:25.776Z,96410.56
2022-10-10T09:25:04.586Z,96410.56
2022-10-10T09:27:38.436Z,96412.28
2022-10-10T09:30:19.999Z,96409.81
2022-10-10T09:33:01.694Z,96413.03
2022-10-10T09:35:31.667Z,96411.53
2022-10-10T09:38:39.667Z,96415.22
2022-10-10T09:41:15.618Z,96413.44
2022-10-10T09:43:42.929Z,96420.34
2022-10-10T09:46:11.033Z,96416.88
2022-10-10T09:48:40.786Z,96413.41
2022-10-10T09:51:14.337Z,96409.41
2022-10-10T09:53:42.426Z,96417.31
2022-10-10T09:56:18.858Z,96423.69
2022-10-10T09:58:48.832Z,96419.84
2022-10-10T10:01:24.270Z,96418.28
2022-10-10T10:04:28.678Z,96414.50
2022-10-10T10:07:06.557Z,96412.44
2022-10-10T10:09:34.216Z,96418.66
2022-10-10T10:12:01.450Z,96408.63
2022-10-10T10:14:32.682Z,96409.91
2022-10-10T10:17:15.970Z,96413.28
2022-10-10T10:19:47.724Z,96413.53
2022-10-10T10:22:31.576Z,96419.81
2022-10-10T10:25:00.613Z,96428.47
2022-10-10T10:27:29.396Z,96418.28
2022-10-10T10:29:58.819Z,96431.84
2022-10-10T10:32:59.654Z,96435.25
2022-10-10T10:35:41.885Z,96438.38
2022-10-10T10:38:20.360Z,96438.56
2022-10-10T10:41:38.428Z,96442.00
2022-10-10T10:44:46.826Z,96443.19
2022-10-10T10:47:16.795Z,96440.69
2022-10-10T10:49:52.187Z,96439.06
2022-10-10T10:52:53.147Z,96442.69
2022-10-10T10:55:39.070Z,96440.34
2022-10-10T11:01:57.725Z,96436.50
2022-10-10T11:05:22.472Z,96436.19
2022-10-10T11:08:12.461Z,96439.28
2022-10-10T11:10:59.161Z,96428.84
2022-10-10T11:13:59.515Z,96428.84
2022-10-10T11:16:48.300Z,96422.25
2022-10-10T11:19:41.914Z,96428.81
2022-10-10T11:22:13.982Z,96420.22
2022-10-10T11:25:08.739Z,96423.88
2022-10-10T11:27:43.180Z,96427.47
2022-10-10T11:30:17.511Z,96421.19
2022-10-10T11:33:02.609Z,96417.50
2022-10-10T11:35:53.667Z,96412.41
2022-10-10T11:38:39.346Z,96407.00
2022-10-10T11:41:09.937Z,96414.78
2022-10-10T11:44:16.662Z,96421.03
2022-10-10T11:47:13.334Z,96405.03
2022-10-10T11:50:07.676Z,96414.72
2022-10-10T11:52:37.428Z,96415.66
2022-10-10T11:55:13.055Z,96419.16
2022-10-10T11:58:06.606Z,96416.31
2022-10-10T12:00:39.543Z,96410.81
2022-10-10T12:03:08.907Z,96407.69
2022-10-10T12:05:40.517Z,96404.03
2022-10-10T12:08:18.339Z,96409.50
2022-10-10T12:11:19.595Z,96400.94
2022-10-10T12:13:59.247Z,96409.50
2022-10-10T12:16:30.733Z,96405.34
2022-10-10T12:19:05.701Z,96399.06
2022-10-10T12:22:13.928Z,96397.00
2022-10-10T12:25:20.827Z,96407.88
2022-10-10T12:28:14.530Z,96405.94
2022-10-10T12:30:58.519Z,96401.31
2022-10-10T12:33:28.944Z,96401.91
2022-10-10T12:35:56.066Z,96397.41
2022-10-10T12:38:28.120Z,96389.03
2022-10-10T12:40:58.190Z,96388.50
2022-10-10T12:43:50.598Z,96387.66
2022-10-10T12:46:24.765Z,96391.94
2022-10-10T12:49:22.997Z,96386.31
2022-10-10T12:52:20.727Z,96387.13
2022-10-10T12:54:49.424Z,96385.44
2022-10-10T12:57:30.808Z,96390.13
2022-10-10T13:00:04.562Z,96385.34
2022-10-10T13:02:31.735Z,96382.75
2022-10-10T13:05:02.764Z,96385.69
2022-10-10T13:07:30.635Z,96384.47
2022-10-10T13:10:19.288Z,96373.44
2022-10-10T13:12:46.329Z,96378.94
2022-10-10T13:15:20.797Z,96376.56
2022-10-10T13:17:47.927Z,96387.56
2022-10-10T13:20:37.150Z,96384.41
2022-10-10T13:23:11.298Z,96385.00
2022-10-10T13:25:39.885Z,96388.38
2022-10-10T13:28:19.033Z,96388.91
2022-10-10T13:30:46.966Z,96392.00
2022-10-10T13:33:20.787Z,96387.66
2022-10-10T13:35:49.222Z,96393.59
2022-10-10T13:38:19.061Z,96389.25
2022-10-10T13:40:46.840Z,96388.28
2022-10-10T13:43:17.500Z,96394.94
2022-10-10T13:45:55.909Z,96393.59
2022-10-10T13:48:38.067Z,96395.53
2022-10-10T13:51:11.442Z,96392.84
2022-10-10T13:53:54.695Z,96389.56
2022-10-10T13:56:31.715Z,96398.06
2022-10-10T13:59:01.486Z,96386.16
2022-10-10T14:01:34.744Z,96402.50
2022-10-10T14:04:04.247Z,96403.31
2022-10-10T14:06:32.593Z,96403.13
2022-10-10T14:09:13.946Z,96398.22
2022-10-10T14:11:43.324Z,96398.69
2022-10-10T14:14:26.389Z,96391.31
2022-10-10T14:17:05.014Z,96389.72
2022-10-10T14:19:33.430Z,96387.75
2022-10-10T14:22:00.624Z,96387.66
2022-10-10T14:24:27.863Z,96383.81
2022-10-10T14:26:55.194Z,96383.03
2022-10-10T14:29:23.396Z,96385.34
2022-10-10T14:31:53.095Z,96385.50
2022-10-10T14:34:27.855Z,96380.72
2022-10-10T14:36:55.124Z,96380.00
2022-10-10T14:39:22.480Z,96390.31
2022-10-10T14:41:55.322Z,96388.31
2022-10-10T14:44:22.765Z,96387.19
2022-10-10T14:46:49.931Z,96391.06
2022-10-10T14:49:21.368Z,96392.41
2022-10-10T14:51:48.892Z,96394.06
2022-10-10T14:54:16.138Z,96383.63
2022-10-10T14:57:08.653Z,96394.72
2022-10-10T14:59:47.627Z,96398.34
2022-10-10T15:02:19.515Z,96387.19
2022-10-10T15:04:47.036Z,96380.34
2022-10-10T15:07:15.439Z,96387.44
2022-10-10T15:10:42.444Z,96378.56
2022-10-10T15:12:38.920Z,96381.88
2022-10-10T15:15:07.429Z,96376.19
2022-10-10T15:17:35.025Z,96388.03
2022-10-10T15:20:04.204Z,96386.03
2022-10-10T15:22:31.881Z,96386.28
2022-10-10T15:24:59.362Z,96393.31
2022-10-10T15:27:28.264Z,96398.88
2022-10-10T15:29:56.358Z,96399.75
2022-10-10T15:32:23.535Z,96398.38
2022-10-10T15:34:51.718Z,96394.81
2022-10-10T15:37:19.914Z,96396.19
2022-10-10T15:39:48.038Z,96395.06
2022-10-10T15:42:22.166Z,96404.16
2022-10-10T15:44:53.686Z,96406.25
2022-10-10T15:47:21.811Z,96406.06
2022-10-10T15:49:49.427Z,96408.69
2022-10-10T15:52:19.193Z,96410.81
2022-10-10T15:54:48.980Z,96407.97
2022-10-10T15:57:18.777Z,96412.81
2022-10-10T15:59:47.918Z,96408.72
2022-10-10T16:02:15.327Z,96415.78
2022-10-10T16:04:44.260Z,96416.84
2022-10-10T16:07:25.832Z,96413.47
2022-10-10T16:09:55.848Z,96425.81
2022-10-10T16:12:23.027Z,96426.97
2022-10-10T16:14:51.912Z,96421.78
2022-10-10T16:17:23.093Z,96425.75
2022-10-10T16:19:50.989Z,96424.38
2022-10-10T16:22:18.220Z,96431.09
2022-10-10T16:24:58.224Z,96435.44
2022-10-10T16:27:32.399Z,96437.25
2022-10-10T16:29:59.928Z,96439.19
2022-10-10T16:32:27.105Z,96449.47
2022-10-10T16:34:54.409Z,96440.81
2022-10-10T16:37:21.591Z,96456.09
2022-10-10T16:39:48.823Z,96454.88
2022-10-10T16:42:16.338Z,96462.16
2022-10-10T16:44:50.600Z,96462.47
2022-10-10T16:47:17.896Z,96465.72
2022-10-10T16:49:45.066Z,96472.28
2022-10-10T16:52:12.373Z,96479.53
2022-10-10T16:54:39.598Z,96476.88
2022-10-10T16:57:06.823Z,96473.53
2022-10-10T16:59:35.017Z,96475.44
2022-10-10T17:02:02.135Z,96486.25
2022-10-10T17:04:29.416Z,96493.81
2022-10-10T17:06:56.501Z,96497.59
2022-10-10T17:09:24.204Z,96493.69
2022-10-10T17:11:51.742Z,96496.19
2022-10-10T17:14:19.576Z,96496.50
2022-10-10T17:17:11.049Z,96501.00
2022-10-10T17:19:34.082Z,96505.31
2022-10-10T17:22:01.244Z,96505.53
2022-10-10T17:24:28.494Z,96501.09
2022-10-10T17:26:55.752Z,96505.59
2022-10-10T17:29:24.988Z,96512.78
2022-10-10T17:31:52.132Z,96517.06
2022-10-10T17:34:19.719Z,96521.59
2022-10-10T17:36:47.247Z,96517.38
2022-10-10T17:39:14.413Z,96525.16
2022-10-10T17:41:41.787Z,96529.16
2022-10-10T17:44:10.965Z,96535.56
2022-10-10T17:46:38.709Z,96532.09
2022-10-10T17:49:07.658Z,96527.66
2022-10-10T17:51:36.267Z,96529.44
2022-10-10T17:54:04.637Z,96527.81
2022-10-10T17:56:32.325Z,96525.13
2022-10-10T17:59:01.867Z,96528.63
2022-10-10T18:01:31.110Z,96526.34
2022-10-10T18:03:59.193Z,96532.19
2022-10-10T18:06:26.631Z,96537.00
2022-10-10T18:08:54.326Z,96531.78
2022-10-10T18:11:24.697Z,96538.06
2022-10-10T18:13:52.593Z,96537.88
2022-10-10T18:16:22.252Z,96541.59
2022-10-10T18:18:52.076Z,96544.13
2022-10-10T18:21:21.986Z,96556.19
2022-10-10T18:23:52.546Z,96556.31
2022-10-10T18:26:22.558Z,96564.28
2022-10-10T18:28:52.807Z,96563.50
2022-10-10T18:31:28.179Z,96575.81
2022-10-10T18:33:56.118Z,96575.13
2022-10-10T18:36:25.851Z,96583.91
2022-10-10T18:38:53.805Z,96585.44
2022-10-10T18:41:25.395Z,96585.50
2022-10-10T18:43:52.864Z,96585.53
2022-10-10T18:46:22.235Z,96599.47
2022-10-10T18:48:54.218Z,96613.25
2022-10-10T18:51:25.228Z,96611.06
2022-10-10T18:53:56.264Z,96618.03
2022-10-10T18:56:26.594Z,96620.56
2022-10-10T18:58:57.932Z,96625.63
2022-10-10T19:01:30.608Z,96633.91
2022-10-10T19:03:57.939Z,96642.47
2022-10-10T19:06:26.351Z,96641.75
2022-10-10T19:08:56.344Z,96638.31
2022-10-10T19:11:32.953Z,96645.03
2022-10-10T19:14:05.022Z,96640.34
2022-10-10T19:16:32.829Z,96647.53
2022-10-10T19:19:01.524Z,96656.28
2022-10-10T19:21:31.877Z,96656.53
2022-10-10T19:24:00.245Z,96656.06
2022-10-10T19:26:28.044Z,96657.84
2022-10-10T19:28:55.531Z,96666.78
2022-10-10T19:31:27.150Z,96664.09
2022-10-10T19:33:54.356Z,96661.38
2022-10-10T19:36:21.593Z,96679.25
2022-10-10T19:38:48.783Z,96674.75
2022-10-10T19:41:16.503Z,96677.69
2022-10-10T19:43:47.758Z,96686.94
2022-10-10T19:46:17.758Z,96680.25
2022-10-10T19:48:45.082Z,96687.00
2022-10-10T19:51:16.150Z,96682.78
2022-10-10T19:53:44.086Z,96695.69
2022-10-10T19:56:16.785Z,96701.41
2022-10-10T19:58:44.028Z,96708.34
2022-10-10T20:01:13.274Z,96707.84
2022-10-10T20:03:41.274Z,96722.97
2022-10-10T20:06:08.498Z,96724.94
2022-10-10T20:08:35.639Z,96726.69
2022-10-10T20:11:05.499Z,96729.91
2022-10-10T20:13:34.936Z,96726.44
2022-10-10T20:16:05.768Z,96732.88
2022-10-10T20:18:35.498Z,96740.78
2022-10-10T20:21:14.214Z,96740.81
2022-10-10T20:23:44.825Z,96749.47
2022-10-10T20:26:18.767Z,96754.66
2022-10-10T20:28:46.533Z,96756.63
2022-10-10T20:31:18.374Z,96761.09
2022-10-10T20:33:48.519Z,96763.84
2022-10-10T20:36:16.671Z,96775.97
2022-10-10T20:38:44.047Z,96778.44
2022-10-10T20:41:11.908Z,96777.66
2022-10-10T20:43:43.260Z,96784.34
2022-10-10T20:46:12.743Z,96787.06
2022-10-10T20:48:40.522Z,96788.56
2022-10-10T20:51:10.809Z,96796.50
2022-10-10T20:53:44.224Z,96797.75
2022-10-10T20:56:12.875Z,96791.06
2022-10-10T20:58:41.109Z,96791.28
2022-10-10T21:01:16.292Z,96791.03
2022-10-10T21:03:45.294Z,96784.84
2022-10-10T21:06:19.320Z,96793.28
2022-10-10T21:08:46.710Z,96796.50
2022-10-10T21:11:18.124Z,96791.50
2022-10-10T21:13:56.798Z,96792.25
2022-10-10T21:16:26.332Z,96796.44
2022-10-10T21:18:57.862Z,96809.06
2022-10-10T21:21:27.776Z,96805.81
2022-10-10T21:23:56.479Z,96814.22
2022-10-10T21:26:26.892Z,96820.16
2022-10-10T21:28:56.307Z,96816.47
2022-10-10T21:31:26.470Z,96816.94
2022-10-10T21:33:54.412Z,96820.13
2022-10-10T21:36:22.624Z,96820.41
2022-10-10T21:38:49.805Z,96818.00
2022-10-10T21:41:22.158Z,96819.41
2022-10-10T21:43:59.907Z,96833.25
2022-10-10T21:46:34.807Z,96833.97
2022-10-10T21:49:10.187Z,96830.72
2022-10-10T21:51:39.547Z,96841.84
2022-10-10T21:54:08.819Z,96839.63
2022-10-10T21:56:36.591Z,96847.53
2022-10-10T21:59:05.312Z,96843.81
2022-10-10T22:01:37.677Z,96848.72
2022-10-10T22:04:06.150Z,96847.25
2022-10-10T22:06:33.776Z,96851.19
2022-10-10T22:09:06.912Z,96845.22
2022-10-10T22:11:35.074Z,96853.59
2022-10-10T22:14:07.062Z,96856.31
2022-10-10T22:16:34.846Z,96852.34
2022-10-10T22:19:02.469Z,96858.25
2022-10-10T22:21:34.960Z,96862.44
2022-10-10T22:24:05.475Z,96864.16
2022-10-10T22:26:34.078Z,96868.59
2022-10-10T22:29:01.950Z,96875.75
2022-10-10T22:31:29.537Z,96869.28
2022-10-10T22:33:56.998Z,96871.16
2022-10-10T22:36:24.099Z,96874.50
2022-10-10T22:38:51.172Z,96877.88
2022-10-10T22:41:18.375Z,96875.91
2022-10-10T22:43:46.363Z,96879.97
2022-10-10T22:46:13.466Z,96876.47
2022-10-10T22:48:40.637Z,96876.19
2022-10-10T22:51:18.353Z,96879.91
2022-10-10T22:53:47.472Z,96876.16
2022-10-10T22:56:19.491Z,96877.88
2022-10-10T22:58:48.771Z,96880.31
2022-10-10T23:01:20.217Z,96888.47
2022-10-10T23:03:47.546Z,96882.75
2022-10-10T23:06:15.292Z,96883.50
2022-10-10T23:08:42.353Z,96896.38
2022-10-10T23:11:09.371Z,96887.47
2022-10-10T23:13:37.592Z,96895.34
2022-10-10T23:16:05.082Z,96892.13
2022-10-10T23:18:32.625Z,96881.25
2022-10-10T23:21:00.071Z,96890.66
2022-10-10T23:23:27.605Z,96887.66
2022-10-10T23:25:54.963Z,96888.41
2022-10-10T23:28:23.159Z,96886.16
2022-10-10T23:30:50.118Z,96898.25
2022-10-10T23:33:17.789Z,96898.00
2022-10-10T23:35:44.735Z,96895.75
2022-10-10T23:38:11.863Z,96903.19
2022-10-10T23:40:41.966Z,96911.09
2022-10-10T23:43:10.849Z,96917.75
2022-10-10T23:45:40.522Z,96916.25
2022-10-10T23:48:07.689Z,96918.69
2022-10-10T23:50:34.748Z,96911.78
2022-10-10T23:53:01.999Z,96916.94
2022-10-10T23:55:28.947Z,96915.44
2022-10-10T23:57:58.567Z,96917.91
